Time;durP1;ratioP1;P1;durP2;ratioP2;P2;SDS_P1;SDS_P2;PMS_P1;PMS_P2;Temp;Humidity;BMP_temperature;BMP_pressure;BME280_temperature;BME280_humidity;BME280_pressure;Samples;Min_cycle;Max_cycle;Signal;HPM_P1;HPM_P2
2021/01/23 00:02:52;;;;;;;59.98;26.52;;;;;;;1.11;87.42;97280.95;2256157;78;21245;-63
2021/01/23 00:05:53;;;;;;;59.08;27.87;;;;;;;1.15;87.56;97282.45;2257729;77;21280;-63
2021/01/23 00:08:54;;;;;;;65.17;29.77;;;;;;;1.17;87.70;97276.31;2244681;78;21272;-63
2021/01/23 00:11:55;;;;;;;67.37;29.35;;;;;;;1.18;87.63;97281.05;2251934;77;21281;-63
2021/01/23 00:14:56;;;;;;;59.18;28.25;;;;;;;1.21;87.85;97279.14;2250476;78;21257;-63
2021/01/23 00:17:57;;;;;;;60.35;26.27;;;;;;;1.23;87.75;97285.52;2250476;78;21736;-63
2021/01/23 00:20:58;;;;;;;55.52;26.35;;;;;;;1.24;87.94;97288.49;2225305;78;21288;-63
2021/01/23 00:24:00;;;;;;;55.05;24.92;;;;;;;1.28;88.07;97287.87;2253378;78;21300;-64
2021/01/23 00:27:01;;;;;;;56.75;26.50;;;;;;;1.32;88.03;97290.70;2253137;78;21248;-62
2021/01/23 00:30:02;;;;;;;57.43;27.60;;;;;;;1.32;88.32;97286.82;2250171;78;21277;-64
2021/01/23 00:33:03;;;;;;;62.75;28.50;;;;;;;1.31;87.83;97298.91;2253131;78;21277;-64
2021/01/23 00:36:04;;;;;;;63.05;27.10;;;;;;;1.31;88.13;97304.55;2262492;77;21274;-63
2021/01/23 00:39:05;;;;;;;64.10;27.22;;;;;;;1.29;87.85;97299.42;2254159;78;21751;-63
2021/01/23 00:42:06;;;;;;;62.55;27.40;;;;;;;1.27;87.78;97289.63;2313020;76;21266;-64
2021/01/23 00:45:07;;;;;;;55.50;26.02;;;;;;;1.28;87.77;97286.58;2282730;78;21268;-63
2021/01/23 00:48:08;;;;;;;59.75;27.32;;;;;;;1.26;87.87;97286.66;2270611;77;21274;-63
2021/01/23 00:51:10;;;;;;;61.95;28.17;;;;;;;1.27;87.68;97288.34;2265408;78;21273;-66
2021/01/23 00:54:11;;;;;;;56.20;26.25;;;;;;;1.28;87.54;97289.16;2314515;76;21289;-63
2021/01/23 00:57:12;;;;;;;52.25;25.37;;;;;;;1.26;87.56;97282.78;2271363;77;21253;-63
2021/01/23 01:00:13;;;;;;;53.60;25.15;;;;;;;1.26;87.55;97276.80;2285242;77;21289;-63
2021/01/23 01:03:14;;;;;;;55.10;24.98;;;;;;;1.23;87.83;97270.02;2264799;77;21285;-63
2021/01/23 01:06:15;;;;;;;53.00;23.62;;;;;;;1.19;87.72;97273.22;2237843;77;21133;-63
2021/01/23 01:09:16;;;;;;;54.48;25.32;;;;;;;1.20;87.68;97265.83;2271585;77;21583;-63
2021/01/23 01:12:17;;;;;;;52.35;23.87;;;;;;;1.20;87.98;97269.70;2272707;77;21149;-63
2021/01/23 01:15:19;;;;;;;55.73;24.65;;;;;;;1.23;88.27;97272.61;2308687;76;21249;-63
2021/01/23 01:18:20;;;;;;;56.48;25.08;;;;;;;1.24;88.25;97280.74;2269145;78;21285;-63
2021/01/23 01:21:21;;;;;;;50.33;22.37;;;;;;;1.24;88.24;97271.70;2284989;77;21582;-64
2021/01/23 01:24:22;;;;;;;49.10;23.10;;;;;;;1.26;88.33;97272.45;2284845;77;21281;-64
2021/01/23 01:27:23;;;;;;;52.50;23.22;;;;;;;1.30;88.50;97275.27;2267168;77;21263;-63
2021/01/23 01:30:24;;;;;;;48.15;22.02;;;;;;;1.36;88.52;97270.27;2269707;77;21747;-63
2021/01/23 01:33:28;;;;;;;48.92;22.48;;;;;;;1.42;88.68;97256.21;2249402;77;21256;-62
2021/01/23 01:36:29;;;;;;;51.40;23.55;;;;;;;1.46;88.50;97253.86;2311915;76;21712;-63
2021/01/23 01:39:30;;;;;;;48.80;22.20;;;;;;;1.47;88.75;97255.08;2311920;76;21256;-63
2021/01/23 01:42:32;;;;;;;48.87;23.02;;;;;;;1.47;88.62;97257.66;2303981;76;21703;-63
2021/01/23 01:45:33;;;;;;;47.98;22.00;;;;;;;1.46;88.63;97255.98;2301402;76;21130;-63
2021/01/23 01:48:34;;;;;;;51.25;21.60;;;;;;;1.44;88.50;97252.65;2301625;76;21692;-63
2021/01/23 01:51:35;;;;;;;44.40;19.87;;;;;;;1.45;88.68;97262.52;2285032;76;21253;-63
2021/01/23 01:54:37;;;;;;;47.08;21.62;;;;;;;1.50;88.90;97262.67;2277184;77;21269;-63
2021/01/23 01:57:38;;;;;;;48.87;21.85;;;;;;;1.57;88.68;97264.51;2234207;77;21309;-64
2021/01/23 02:00:39;;;;;;;47.80;21.77;;;;;;;1.62;88.79;97268.98;2280206;77;21736;-63
2021/01/23 02:03:40;;;;;;;48.30;21.68;;;;;;;1.68;88.93;97269.12;2281796;77;21320;-63
2021/01/23 02:06:42;;;;;;;48.65;22.45;;;;;;;1.71;89.24;97267.24;2277911;77;21248;-63
2021/01/23 02:09:43;;;;;;;45.50;20.48;;;;;;;1.76;88.90;97266.18;2269464;77;21276;-63
2021/01/23 02:12:44;;;;;;;43.90;20.12;;;;;;;1.80;89.01;97263.83;2269518;77;21583;-62
2021/01/23 02:15:45;;;;;;;42.50;20.37;;;;;;;1.86;89.03;97273.37;2268844;77;21288;-62
2021/01/23 02:18:46;;;;;;;47.38;20.95;;;;;;;1.92;89.33;97263.19;2271952;78;21339;-63
2021/01/23 02:21:47;;;;;;;46.53;19.60;;;;;;;1.98;89.19;97265.45;2257797;77;21264;-63
2021/01/23 02:24:48;;;;;;;45.25;20.80;;;;;;;2.06;89.06;97253.44;2256360;77;21356;-62
2021/01/23 02:27:49;;;;;;;47.23;21.48;;;;;;;2.13;89.09;97251.38;2263785;77;21118;-62
2021/01/23 02:30:50;;;;;;;46.00;21.05;;;;;;;2.18;89.45;97254.55;2268213;77;21352;-63
2021/01/23 02:33:52;;;;;;;43.78;21.02;;;;;;;2.20;89.05;97251.44;2279588;77;21546;-63
2021/01/23 02:36:53;;;;;;;43.02;19.32;;;;;;;2.22;88.95;97243.95;2250990;77;21753;-63
2021/01/23 02:39:54;;;;;;;43.92;18.25;;;;;;;2.25;89.05;97240.38;2265944;77;21305;-62
2021/01/23 02:42:55;;;;;;;39.98;18.15;;;;;;;2.29;89.09;97238.47;2277631;77;21274;-63
2021/01/23 02:45:56;;;;;;;41.02;18.35;;;;;;;2.34;89.13;97232.58;2311057;76;21281;-63
2021/01/23 02:48:57;;;;;;;40.55;18.67;;;;;;;2.39;89.11;97239.18;2272476;77;21284;-63
2021/01/23 02:51:58;;;;;;;42.40;18.62;;;;;;;2.46;89.19;97240.14;2289344;77;21264;-62
2021/01/23 02:55:00;;;;;;;44.98;18.90;;;;;;;2.51;89.02;97233.80;2266189;77;21745;-62
2021/01/23 02:58:01;;;;;;;40.38;18.70;;;;;;;2.54;89.12;97233.66;2251106;77;21320;-63
2021/01/23 03:01:02;;;;;;;40.70;19.50;;;;;;;2.57;88.95;97236.52;2269349;77;21281;-63
2021/01/23 03:04:03;;;;;;;40.28;18.75;;;;;;;2.58;88.85;97231.73;2248583;78;21268;-63
2021/01/23 03:07:04;;;;;;;40.10;18.37;;;;;;;2.59;88.88;97229.05;2316361;76;21277;-63
2021/01/23 03:10:05;;;;;;;41.13;17.75;;;;;;;2.63;88.84;97220.67;2283686;77;21270;-63
2021/01/23 03:13:06;;;;;;;39.85;17.55;;;;;;;2.67;88.86;97221.33;2285078;77;21127;-62
2021/01/23 03:16:07;;;;;;;40.23;18.95;;;;;;;2.71;88.99;97223.66;2275651;77;21709;-63
2021/01/23 03:19:09;;;;;;;37.88;18.65;;;;;;;2.77;89.10;97222.49;2283689;78;21266;-62
2021/01/23 03:22:10;;;;;;;41.50;18.80;;;;;;;2.82;89.18;97215.79;2259540;77;21256;-62
2021/01/23 03:25:11;;;;;;;42.05;18.35;;;;;;;2.79;89.34;97209.02;2275782;77;21700;-63
2021/01/23 03:28:12;;;;;;;38.58;17.65;;;;;;;2.80;88.86;97208.55;2279036;77;21171;-63
2021/01/23 03:31:14;;;;;;;41.53;17.42;;;;;;;2.81;89.01;97198.09;2285309;78;21130;-63
2021/01/23 03:34:15;;;;;;;38.67;16.97;;;;;;;2.81;89.00;97192.92;2306585;76;21270;-63
2021/01/23 03:37:16;;;;;;;38.58;16.48;;;;;;;2.84;89.03;97199.22;2284899;77;21724;-63
2021/01/23 03:40:17;;;;;;;38.55;17.55;;;;;;;2.87;89.35;97205.52;2286239;77;21261;-63
2021/01/23 03:43:20;;;;;;;39.73;17.48;;;;;;;2.92;89.55;97202.70;2252664;77;21288;-63
2021/01/23 03:46:21;;;;;;;46.08;19.95;;;;;;;2.94;89.46;97195.22;2262529;77;21673;-63
2021/01/23 03:49:23;;;;;;;41.73;17.50;;;;;;;2.93;89.75;97190.95;2269410;77;21270;-65
2021/01/23 03:52:24;;;;;;;38.95;17.48;;;;;;;2.95;89.64;97188.27;2275744;77;21277;-65
2021/01/23 03:55:25;;;;;;;39.48;17.23;;;;;;;2.97;89.68;97188.19;2267268;77;21280;-63
2021/01/23 03:58:26;;;;;;;37.55;16.70;;;;;;;3.00;89.46;97181.53;2282255;77;21284;-65
2021/01/23 04:01:28;;;;;;;38.58;16.05;;;;;;;3.03;89.44;97183.95;2309490;76;21252;-63
2021/01/23 04:04:29;;;;;;;35.03;16.37;;;;;;;3.06;89.66;97177.30;2309502;76;21254;-63
2021/01/23 04:07:30;;;;;;;34.58;16.23;;;;;;;3.09;89.85;97170.67;2272552;77;21698;-64
2021/01/23 04:10:31;;;;;;;39.50;17.92;;;;;;;3.11;89.75;97172.70;2261915;77;21181;-64
2021/01/23 04:13:32;;;;;;;39.03;16.48;;;;;;;3.12;89.71;97165.30;2267466;77;21269;-63
2021/01/23 04:16:33;;;;;;;36.80;17.23;;;;;;;3.14;90.00;97164.74;2274119;77;21265;-63
2021/01/23 04:19:35;;;;;;;35.28;16.25;;;;;;;3.14;90.09;97162.16;2240964;78;21126;-65
2021/01/23 04:22:36;;;;;;;37.95;16.90;;;;;;;3.17;90.07;97162.44;2250811;77;21709;-63
2021/01/23 04:25:37;;;;;;;39.78;16.48;;;;;;;3.20;90.07;97155.31;2252316;77;21710;-63
2021/01/23 04:28:39;;;;;;;37.45;16.48;;;;;;;3.24;90.28;97146.91;2284375;77;21273;-63
2021/01/23 04:31:40;;;;;;;38.55;16.20;;;;;;;3.27;90.23;97142.84;2310903;76;21738;-63
2021/01/23 04:34:42;;;;;;;36.15;15.78;;;;;;;3.30;90.01;97136.18;2279078;78;21593;-63
2021/01/23 04:37:43;;;;;;;37.05;16.20;;;;;;;3.35;89.93;97130.72;2284396;77;21297;-63
2021/01/23 04:40:44;;;;;;;37.90;17.23;;;;;;;3.38;89.94;97118.91;2235558;77;22952;-63
2021/01/23 04:43:46;;;;;;;40.27;18.83;;;;;;;3.40;90.68;97130.00;2276104;77;21273;-63
2021/01/23 04:46:47;;;;;;;40.35;18.57;;;;;;;3.39;90.35;97122.70;2317242;76;21131;-63
2021/01/23 04:49:48;;;;;;;41.18;18.80;;;;;;;3.39;90.28;97123.14;2246739;78;21700;-63
2021/01/23 04:52:49;;;;;;;38.15;18.42;;;;;;;3.39;90.38;97125.30;2252522;78;21669;-63
2021/01/23 04:55:51;;;;;;;41.00;17.75;;;;;;;3.41;90.09;97123.43;2257352;77;21736;-63
2021/01/23 04:58:52;;;;;;;38.55;16.82;;;;;;;3.45;90.33;97121.51;2263149;77;21277;-63
2021/01/23 05:01:53;;;;;;;39.63;17.73;;;;;;;3.49;90.44;97127.33;2268963;77;21687;-62
2021/01/23 05:04:56;;;;;;;37.05;18.37;;;;;;;3.53;90.82;97127.52;2261572;77;21677;-63
2021/01/23 05:07:58;;;;;;;37.10;18.75;;;;;;;3.56;90.50;97120.85;2279129;77;21551;-63
2021/01/23 05:10:59;;;;;;;42.53;20.72;;;;;;;3.57;90.50;97123.83;2281061;77;21264;-64
2021/01/23 05:14:00;;;;;;;42.10;19.47;;;;;;;3.57;90.46;97127.71;2263063;77;21304;-63
2021/01/23 05:17:01;;;;;;;40.03;20.00;;;;;;;3.57;90.72;97122.53;2263664;77;21266;-64
2021/01/23 05:20:03;;;;;;;38.55;18.10;;;;;;;3.58;90.61;97128.92;2272733;77;21732;-63
2021/01/23 05:23:04;;;;;;;36.93;18.55;;;;;;;3.62;90.31;97128.25;2312921;76;21313;-63
2021/01/23 05:26:05;;;;;;;39.10;18.17;;;;;;;3.64;90.26;97124.65;2261422;78;21268;-63
2021/01/23 05:29:06;;;;;;;38.88;17.55;;;;;;;3.67;90.22;97131.89;2261507;77;21316;-63
2021/01/23 05:32:07;;;;;;;38.05;18.25;;;;;;;3.69;90.77;97124.84;2282705;77;21142;-63
2021/01/23 05:35:08;;;;;;;37.80;19.20;;;;;;;3.71;90.29;97123.83;2315235;76;21699;-64
2021/01/23 05:38:10;;;;;;;38.85;19.15;;;;;;;3.73;90.24;97127.15;2262592;78;21261;-63
2021/01/23 05:41:11;;;;;;;39.38;19.37;;;;;;;3.73;91.00;97118.07;2276154;77;21252;-63
2021/01/23 05:44:14;;;;;;;38.02;18.12;;;;;;;3.72;90.23;97109.09;2253045;77;21284;-63
2021/01/23 05:47:15;;;;;;;40.58;18.98;;;;;;;3.72;90.87;97116.42;2263859;77;21272;-63
2021/01/23 05:50:16;;;;;;;37.58;18.60;;;;;;;3.72;90.42;97108.65;2274871;77;21257;-63
2021/01/23 05:53:17;;;;;;;36.83;18.87;;;;;;;3.72;90.14;97099.57;2263902;78;21725;-63
2021/01/23 05:56:18;;;;;;;35.28;17.37;;;;;;;3.74;90.40;97088.63;2316941;76;21274;-63
2021/01/23 05:59:19;;;;;;;40.52;17.85;;;;;;;3.75;90.14;97108.45;2278721;78;21261;-63
2021/01/23 06:02:20;;;;;;;39.53;18.62;;;;;;;3.76;90.07;97100.20;2252956;77;21617;-63
2021/01/23 06:05:22;;;;;;;40.70;19.82;;;;;;;3.78;90.17;97097.89;2257273;77;21577;-63
2021/01/23 06:08:23;;;;;;;36.13;17.92;;;;;;;3.79;90.01;97098.27;2266406;77;21725;-63
2021/01/23 06:11:24;;;;;;;40.63;18.40;;;;;;;3.78;90.20;97091.41;2274372;77;21273;-62
2021/01/23 06:14:25;;;;;;;36.77;17.67;;;;;;;3.80;90.11;97091.31;2266974;77;21268;-63
2021/01/23 06:17:27;;;;;;;36.98;19.07;;;;;;;3.82;90.19;97095.93;2257733;77;21304;-63
2021/01/23 06:20:28;;;;;;;35.73;18.07;;;;;;;3.86;90.03;97093.52;2275097;77;21281;-63
2021/01/23 06:23:29;;;;;;;39.88;18.62;;;;;;;3.89;90.17;97086.02;2266290;78;21292;-64
2021/01/23 06:26:30;;;;;;;37.60;18.70;;;;;;;3.92;89.89;97098.80;2277011;77;21765;-63
2021/01/23 06:29:31;;;;;;;41.73;18.62;;;;;;;3.93;89.73;97097.87;2265807;77;21558;-63
2021/01/23 06:32:32;;;;;;;37.53;18.87;;;;;;;3.93;89.95;97084.91;2312634;76;21706;-63
2021/01/23 06:35:33;;;;;;;38.83;20.08;;;;;;;3.93;89.82;97090.09;2277676;77;21269;-64
2021/01/23 06:38:34;;;;;;;38.95;18.52;;;;;;;3.92;89.69;97087.13;2280110;77;21300;-63
2021/01/23 06:41:37;;;;;;;38.17;17.87;;;;;;;3.91;89.80;97079.81;2254149;77;21271;-63
2021/01/23 06:44:38;;;;;;;40.48;17.60;;;;;;;3.92;89.73;97084.53;2266029;77;21146;-63
2021/01/23 06:47:39;;;;;;;36.45;16.55;;;;;;;3.92;89.83;97077.60;2284639;77;21582;-64
2021/01/23 06:50:41;;;;;;;35.85;17.23;;;;;;;3.94;89.68;97077.03;2314438;76;21260;-63
2021/01/23 06:53:43;;;;;;;37.35;17.07;;;;;;;3.98;89.69;97075.91;2285095;77;21297;-63
2021/01/23 06:56:46;;;;;;;38.15;18.10;;;;;;;3.98;89.50;97069.43;2281008;77;21276;-63
2021/01/23 06:59:48;;;;;;;35.95;17.65;;;;;;;3.99;89.41;97068.95;2258431;78;21356;-63
2021/01/23 07:02:49;;;;;;;39.55;18.35;;;;;;;3.98;89.47;97082.87;2264226;77;21693;-63
2021/01/23 07:05:51;;;;;;;37.48;16.50;;;;;;;3.96;89.35;97076.94;2272316;77;21759;-63
2021/01/23 07:08:52;;;;;;;34.23;17.20;;;;;;;3.97;89.51;97085.09;2269327;78;21268;-63
2021/01/23 07:11:53;;;;;;;32.58;15.65;;;;;;;3.98;89.45;97076.39;2268494;77;21138;-63
2021/01/23 07:14:54;;;;;;;36.63;17.05;;;;;;;4.01;89.36;97077.94;2276707;77;21138;-63
2021/01/23 07:17:56;;;;;;;34.10;16.23;;;;;;;4.04;89.40;97080.34;2273212;77;21730;-63
2021/01/23 07:20:57;;;;;;;32.40;16.12;;;;;;;4.07;89.15;97073.20;2262304;77;21597;-63
2021/01/23 07:23:58;;;;;;;36.80;17.52;;;;;;;4.09;89.06;97070.52;2254175;78;21351;-63
2021/01/23 07:26:59;;;;;;;36.00;19.10;;;;;;;4.11;89.09;97079.88;2276766;77;21348;-63
2021/01/23 07:30:00;;;;;;;35.48;17.48;;;;;;;4.11;88.95;97078.58;2284204;77;21301;-63
2021/01/23 07:33:01;;;;;;;34.43;16.87;;;;;;;4.12;88.95;97073.77;2312616;76;21123;-63
2021/01/23 07:36:03;;;;;;;34.23;16.40;;;;;;;4.13;88.80;97071.52;2276756;77;21709;-63
2021/01/23 07:39:04;;;;;;;37.13;15.80;;;;;;;4.15;88.78;97072.27;2270023;78;22053;-63
2021/01/23 07:42:05;;;;;;;34.60;15.85;;;;;;;4.19;88.70;97064.29;2253763;77;21300;-64
2021/01/23 07:45:06;;;;;;;33.10;15.85;;;;;;;4.21;88.67;97061.97;2276706;77;21364;-64
2021/01/23 07:48:07;;;;;;;33.75;16.23;;;;;;;4.23;88.52;97060.09;2279869;78;21258;-64
2021/01/23 07:51:09;;;;;;;35.03;17.07;;;;;;;4.26;88.53;97052.11;2276748;77;21280;-66
2021/01/23 07:54:10;;;;;;;33.80;17.27;;;;;;;4.28;88.44;97052.02;2280619;77;21318;-65
2021/01/23 07:57:11;;;;;;;41.33;18.07;;;;;;;4.28;88.38;97045.08;2278703;77;21280;-65
2021/01/23 08:00:13;;;;;;;35.35;17.17;;;;;;;4.29;88.42;97047.20;2272907;77;21261;-65
2021/01/23 08:03:14;;;;;;;35.38;16.85;;;;;;;4.29;88.49;97034.22;2267928;77;21305;-64
2021/01/23 08:06:15;;;;;;;33.10;15.68;;;;;;;4.30;88.39;97037.19;2278739;78;21686;-65
2021/01/23 08:09:16;;;;;;;35.13;16.90;;;;;;;4.32;88.31;97041.36;2310667;76;21281;-65
2021/01/23 08:12:18;;;;;;;35.92;18.17;;;;;;;4.38;88.27;97048.37;2285426;78;21135;-64
2021/01/23 08:15:19;;;;;;;33.40;16.67;;;;;;;4.41;88.17;97032.59;2286161;77;21263;-66
2021/01/23 08:18:21;;;;;;;35.30;16.60;;;;;;;4.38;88.20;97031.02;2266616;77;21715;-64
2021/01/23 08:21:22;;;;;;;34.63;16.67;;;;;;;4.32;88.39;97028.83;2269553;77;21134;-63
2021/01/23 08:24:23;;;;;;;35.40;16.87;;;;;;;4.27;88.56;97023.11;2261310;78;21122;-64
2021/01/23 08:27:26;;;;;;;34.38;16.37;;;;;;;4.25;88.84;97015.88;2274323;77;21320;-63
2021/01/23 08:30:27;;;;;;;34.48;16.40;;;;;;;4.24;88.69;97017.66;2269065;77;21261;-64
2021/01/23 08:33:28;;;;;;;33.35;15.10;;;;;;;4.20;88.83;97008.39;2267389;77;21753;-64
2021/01/23 08:36:29;;;;;;;34.03;15.53;;;;;;;4.24;88.96;97012.91;2265611;77;21273;-63
2021/01/23 08:39:31;;;;;;;39.73;17.60;;;;;;;4.27;89.01;97012.26;2269319;77;21277;-63
2021/01/23 08:42:32;;;;;;;39.65;18.23;;;;;;;4.28;88.99;97028.20;2267124;77;21253;-63
2021/01/23 08:45:33;;;;;;;36.55;17.65;;;;;;;4.30;88.74;97032.81;2282983;77;21131;-63
2021/01/23 08:48:35;;;;;;;36.13;17.42;;;;;;;4.30;88.72;97028.92;2250925;77;21740;-64
2021/01/23 08:51:37;;;;;;;37.45;18.15;;;;;;;4.29;88.76;97029.84;2291425;77;22248;-63
2021/01/23 08:54:39;;;;;;;34.85;16.82;;;;;;;4.27;88.76;97027.01;2280814;77;21277;-63
2021/01/23 08:57:40;;;;;;;35.65;16.67;;;;;;;4.27;89.04;97023.11;2315222;76;21324;-63
2021/01/23 09:00:41;;;;;;;37.63;16.82;;;;;;;4.26;88.93;97018.37;2282100;77;21250;-63
2021/01/23 09:03:42;;;;;;;34.58;15.85;;;;;;;4.27;89.02;97029.13;2288354;77;21285;-64
2021/01/23 09:06:44;;;;;;;37.98;18.15;;;;;;;4.25;89.02;97005.05;2258168;77;21258;-63
2021/01/23 09:09:46;;;;;;;41.33;19.35;;;;;;;4.26;88.90;97013.66;2265177;78;21744;-63
2021/01/23 09:12:47;;;;;;;37.90;18.65;;;;;;;4.26;88.93;97009.77;2269442;77;21312;-63
2021/01/23 09:15:49;;;;;;;38.45;18.60;;;;;;;4.26;89.01;97026.63;2271271;77;21274;-63
2021/01/23 09:18:50;;;;;;;39.38;18.55;;;;;;;4.23;89.11;97030.73;2273683;77;21288;-63
2021/01/23 09:21:52;;;;;;;39.42;18.45;;;;;;;4.21;89.12;97033.42;2272034;77;21304;-64
2021/01/23 09:24:53;;;;;;;36.30;17.77;;;;;;;4.23;88.96;97037.22;2263261;77;21248;-63
2021/01/23 09:27:54;;;;;;;40.60;18.17;;;;;;;4.26;88.90;97028.75;2258427;77;21264;-64
2021/01/23 09:30:56;;;;;;;34.60;16.87;;;;;;;4.27;88.96;97039.98;2275015;77;21285;-63
2021/01/23 09:33:57;;;;;;;37.45;18.23;;;;;;;4.30;88.85;97020.32;2260623;77;21285;-64
2021/01/23 09:36:58;;;;;;;41.13;19.75;;;;;;;4.32;88.83;97022.34;2276000;77;21265;-63
2021/01/23 09:40:01;;;;;;;37.13;17.75;;;;;;;4.33;88.68;97005.36;2269387;77;21578;-63
2021/01/23 09:43:02;;;;;;;35.78;17.67;;;;;;;4.34;88.66;97000.55;2276046;77;21270;-64
2021/01/23 09:46:03;;;;;;;34.05;16.55;;;;;;;4.34;88.65;96988.05;2267958;77;21286;-63
2021/01/23 09:49:05;;;;;;;36.50;16.97;;;;;;;4.37;88.56;96993.03;2272683;77;21269;-63
2021/01/23 09:52:06;;;;;;;36.40;17.23;;;;;;;4.40;88.39;97001.91;2283463;77;21270;-63
2021/01/23 09:55:07;;;;;;;37.13;16.67;;;;;;;4.45;88.23;97017.19;2286022;77;21714;-63
2021/01/23 09:58:09;;;;;;;37.10;17.32;;;;;;;4.51;88.18;97014.18;2270966;77;21717;-63
2021/01/23 10:01:10;;;;;;;36.28;18.50;;;;;;;4.55;88.00;97014.34;2269810;77;21268;-63
2021/01/23 10:04:11;;;;;;;38.58;18.52;;;;;;;4.61;87.86;97001.43;2265204;77;21367;-64
2021/01/23 10:07:12;;;;;;;35.68;18.12;;;;;;;4.63;87.70;96991.80;2270706;77;21594;-63
2021/01/23 10:10:14;;;;;;;36.55;18.12;;;;;;;4.60;87.64;96990.22;2284717;77;21733;-63
2021/01/23 10:13:15;;;;;;;33.85;16.82;;;;;;;4.62;87.64;96989.64;2280705;77;21305;-63
2021/01/23 10:16:16;;;;;;;36.28;17.23;;;;;;;4.65;87.54;96992.51;2274340;77;21281;-63
2021/01/23 10:19:18;;;;;;;35.63;16.45;;;;;;;4.67;87.45;96995.38;2270930;77;21304;-64
2021/01/23 10:22:19;;;;;;;36.10;17.20;;;;;;;4.72;87.24;96992.47;2258267;77;21271;-66
2021/01/23 10:25:20;;;;;;;39.27;19.00;;;;;;;4.76;87.06;96986.14;2272138;77;21306;-64
2021/01/23 10:28:22;;;;;;;40.10;19.42;;;;;;;4.79;87.06;96975.54;2265731;77;21273;-64
2021/01/23 10:31:23;;;;;;;37.75;18.60;;;;;;;4.84;86.96;96966.98;2273496;77;21271;-64
2021/01/23 10:34:24;;;;;;;39.15;19.42;;;;;;;4.88;86.74;96979.28;2265486;77;21287;-64
2021/01/23 10:37:25;;;;;;;38.20;19.55;;;;;;;4.94;86.70;96978.04;2230166;77;21248;-63
2021/01/23 10:40:26;;;;;;;39.88;19.57;;;;;;;5.02;86.51;96975.28;2269481;77;21747;-64
2021/01/23 10:43:28;;;;;;;41.73;20.97;;;;;;;5.17;86.36;96974.72;2260373;77;21569;-64
2021/01/23 10:46:29;;;;;;;41.10;19.85;;;;;;;5.33;86.11;97006.14;2286117;77;21586;-63
2021/01/23 10:49:30;;;;;;;41.10;22.35;;;;;;;5.40;85.81;96990.48;2283904;77;21646;-64
2021/01/23 10:52:32;;;;;;;44.03;20.20;;;;;;;5.46;85.68;96989.22;2256110;77;21091;-64
2021/01/23 10:55:33;;;;;;;41.60;20.77;;;;;;;5.51;85.35;96985.84;2266535;77;21277;-64
2021/01/23 10:58:34;;;;;;;43.55;21.05;;;;;;;5.57;85.45;96980.69;2268313;77;21274;-63
2021/01/23 11:01:38;;;;;;;40.23;18.62;;;;;;;5.64;85.32;96980.63;2272806;77;21269;-63
2021/01/23 11:04:39;;;;;;;39.20;19.55;;;;;;;5.69;84.43;96972.86;2267835;77;21269;-63
2021/01/23 11:07:40;;;;;;;38.50;20.72;;;;;;;5.71;84.21;96971.45;2266317;77;21248;-63
2021/01/23 11:10:42;;;;;;;43.87;21.62;;;;;;;5.70;84.89;96968.02;2284826;77;21286;-65
2021/01/23 11:13:43;;;;;;;42.00;21.75;;;;;;;5.73;84.79;96970.85;2285741;77;21309;-63
2021/01/23 11:16:44;;;;;;;38.13;19.40;;;;;;;5.85;84.87;96966.09;2274206;77;21166;-63
2021/01/23 11:19:45;;;;;;;40.35;20.35;;;;;;;5.98;84.94;96968.68;2267496;77;21281;-63
2021/01/23 11:22:46;;;;;;;36.65;19.35;;;;;;;6.11;84.51;96957.39;2265326;77;21711;-64
2021/01/23 11:25:47;;;;;;;40.08;19.12;;;;;;;6.24;84.24;96963.36;2262843;77;21279;-64
2021/01/23 11:28:48;;;;;;;45.25;20.02;;;;;;;6.38;83.56;96978.80;2271384;77;21267;-64
2021/01/23 11:31:50;;;;;;;42.15;19.90;;;;;;;6.52;83.74;96966.07;2260361;77;21138;-63
2021/01/23 11:34:51;;;;;;;41.42;20.97;;;;;;;6.56;82.97;96968.78;2278395;77;21278;-63
2021/01/23 11:37:52;;;;;;;39.40;19.55;;;;;;;6.60;83.03;96960.28;2265902;77;21268;-64
2021/01/23 11:40:53;;;;;;;35.95;18.42;;;;;;;6.62;82.19;96957.08;2258462;77;21256;-66
2021/01/23 11:43:54;;;;;;;35.63;17.92;;;;;;;6.59;82.22;96949.04;2265307;77;21264;-65
2021/01/23 11:46:55;;;;;;;36.30;17.92;;;;;;;6.58;81.60;96949.16;2268014;77;21286;-64
2021/01/23 11:49:57;;;;;;;38.33;20.32;;;;;;;6.59;81.89;96947.73;2267137;77;21285;-65
2021/01/23 11:52:58;;;;;;;40.43;19.80;;;;;;;6.61;82.15;96954.59;2271224;77;21299;-63
2021/01/23 11:55:59;;;;;;;37.45;19.62;;;;;;;6.61;82.31;96951.53;2273914;78;21138;-63
2021/01/23 11:59:00;;;;;;;38.83;20.32;;;;;;;6.62;82.18;96945.35;2245229;77;21301;-64
2021/01/23 12:02:01;;;;;;;40.98;21.20;;;;;;;6.71;81.73;96946.44;2271337;77;21696;-64
2021/01/23 12:05:02;;;;;;;41.55;20.40;;;;;;;6.74;80.77;96930.11;2279434;78;21237;-66
2021/01/23 12:08:04;;;;;;;37.35;19.57;;;;;;;6.85;81.50;96931.07;2272066;77;21252;-66
2021/01/23 12:11:05;;;;;;;38.45;18.92;;;;;;;6.94;81.84;96918.17;2278285;77;21293;-65
2021/01/23 12:14:06;;;;;;;38.35;17.80;;;;;;;7.09;80.74;96907.03;2229582;77;21559;-64
2021/01/23 12:17:10;;;;;;;35.92;17.82;;;;;;;7.19;79.41;96912.36;2271289;77;21374;-63
2021/01/23 12:20:10;;;;;;;38.45;18.82;;;;;;;7.27;80.50;96909.18;2277437;77;21277;-66
2021/01/23 12:23:12;;;;;;;34.88;17.05;;;;;;;7.29;79.96;96900.75;2265311;77;21708;-66
2021/01/23 12:26:13;;;;;;;36.83;17.87;;;;;;;7.28;78.80;96889.50;2265082;77;21603;-65
2021/01/23 12:29:15;;;;;;;34.92;16.37;;;;;;;7.24;79.61;96890.69;2280170;77;21289;-64
2021/01/23 12:32:16;;;;;;;35.70;16.85;;;;;;;7.23;79.58;96890.80;2279370;77;21257;-65
2021/01/23 12:35:17;;;;;;;38.55;19.45;;;;;;;7.26;79.62;96886.16;2270027;78;21288;-64
2021/01/23 12:38:18;;;;;;;38.00;17.07;;;;;;;7.28;79.85;96889.95;2271688;77;21265;-64
2021/01/23 12:41:22;;;;;;;38.58;18.05;;;;;;;7.26;79.05;96898.38;2272627;77;21289;-65
2021/01/23 12:44:23;;;;;;;35.63;17.35;;;;;;;7.15;78.42;96897.09;2277275;77;21784;-64
2021/01/23 12:47:24;;;;;;;34.18;16.93;;;;;;;7.07;79.80;96893.30;2266682;77;21280;-64
2021/01/23 12:50:26;;;;;;;36.23;16.90;;;;;;;7.04;79.68;96891.38;2266929;77;21256;-64
2021/01/23 12:53:27;;;;;;;36.38;16.87;;;;;;;7.01;79.12;96879.44;2269943;77;21682;-63
2021/01/23 12:56:28;;;;;;;34.18;16.27;;;;;;;7.02;79.58;96888.08;2264310;77;21264;-64
2021/01/23 12:59:31;;;;;;;33.33;16.23;;;;;;;7.04;79.54;96892.23;2269341;77;21701;-64
2021/01/23 13:02:36;;;;;;;33.38;16.67;;;;;;;7.08;79.56;96887.14;2265074;77;21296;-64
2021/01/23 13:05:37;;;;;;;36.65;16.80;;;;;;;7.09;79.27;96891.38;2265233;77;21265;-64
2021/01/23 13:08:38;;;;;;;35.13;17.37;;;;;;;7.10;79.44;96887.84;2271816;77;21265;-64
2021/01/23 13:11:39;;;;;;;35.70;17.52;;;;;;;7.15;79.37;96883.56;2269152;77;21689;-65
2021/01/23 13:14:40;;;;;;;36.58;17.62;;;;;;;7.16;78.43;96881.80;2258369;77;21280;-63
2021/01/23 13:17:41;;;;;;;37.65;16.70;;;;;;;7.12;78.88;96887.72;2275978;77;21278;-63
2021/01/23 13:20:42;;;;;;;36.75;17.75;;;;;;;7.02;78.69;96888.08;2265296;77;21696;-64
2021/01/23 13:23:43;;;;;;;35.50;16.37;;;;;;;6.97;79.47;96891.50;2267168;77;21289;-66
2021/01/23 13:26:44;;;;;;;34.90;16.42;;;;;;;6.94;79.22;96884.29;2264275;77;21252;-64
2021/01/23 13:29:46;;;;;;;36.60;16.27;;;;;;;6.91;79.08;96880.62;2264734;78;21118;-69
2021/01/23 13:32:50;;;;;;;36.25;17.70;;;;;;;6.86;78.92;96872.31;2262271;77;21724;-65
2021/01/23 13:35:51;;;;;;;36.35;17.42;;;;;;;6.80;78.92;96870.67;2269094;77;21269;-64
2021/01/23 13:38:52;;;;;;;34.92;17.77;;;;;;;6.73;79.33;96875.52;2258423;77;21855;-64
2021/01/23 13:41:54;;;;;;;33.75;16.95;;;;;;;6.67;79.41;96866.88;2271696;77;21261;-64
2021/01/23 13:44:55;;;;;;;35.92;16.27;;;;;;;6.58;79.05;96867.92;2272275;77;21736;-69
2021/01/23 13:47:56;;;;;;;34.75;16.25;;;;;;;6.51;78.89;96859.39;2281451;77;21333;-63
2021/01/23 13:50:57;;;;;;;34.75;16.07;;;;;;;6.50;79.50;96859.03;2271476;77;21733;-64
2021/01/23 13:53:58;;;;;;;37.15;17.42;;;;;;;6.50;79.48;96842.10;2273659;77;21268;-64
2021/01/23 13:57:00;;;;;;;37.53;17.70;;;;;;;6.50;79.45;96852.52;2266574;77;21331;-64
2021/01/23 14:00:01;;;;;;;36.48;18.50;;;;;;;6.48;79.40;96857.00;2273083;77;21264;-64
2021/01/23 14:03:04;;;;;;;38.73;18.17;;;;;;;6.47;79.59;96849.67;2275703;77;21571;-63